Twin Brooks, South Dakota
Current Conditions -  °F | °C
As of 2:13 PM on Monday 24 Nov 2014 (Local Time) from KVVV Reporting Station
Light Snow Light Snow  
Wind Chill:   Ceiling: 2300
Heat Index: 16°   Visibility: 5mi
Dew Point:   Wind: 17mph
Humidity: 73%   Direction: 330°NNW
Pressure: 29.75"   Gusts: 31mph
Location:  45.21°N, 96.78°W
Report Text: KVVV 242013Z AUTO 33015G27KT 5SM -SN OVC023 M09/M13 A2975 RMK AO2
Loading
Personal Weather Stations






























Interactive Weather Map New forecast layout! Learn more

10-Day Weather Forecast

Advertisements
Track Severe Weather on mobile